Login
Access
Login with your mtb-forum.it nickname and password.


You do not have an account? Sign up here for free

Iceman

Last training unit 30/06/2015
0
Followers
13 054 Km
itineraries
56 568 m
of total vertical gain
466
hours of riding
27.91 Km/h
average speed
143
average HR


30/06/2015 Show to everybody 30/06/2015 Roverbella, Giro pre cena 35.39 Km 121 m 01:20:16 26.46 Km\h Il Re Legend
28/06/2015 Show to everybody 28/06/2015 Roverbella, Bisognerà pur far arrivare mezzogiorno facendo qualcosa... Sosta da GMdK 101.04 Km 416 m 03:44:16 27.03 Km\h Il Re Legend
27/06/2015 Show to everybody 27/06/2015 Roverbella, Classico dei primi tempi in bici 47.29 Km 256 m 01:52:04 25.32 Km\h Il Re Legend
25/06/2015 Show to everybody 25/06/2015 Roverbella recupero attivo 35.53 Km 32 m 01:16:10 27.99 Km\h Il Re Legend
24/06/2015 Show to everybody 24/06/2015 Roverbella, 3x9.30" SDR (Salite Debolezza Ripetute) 58.22 Km 482 m 03:22:17 24.55 Km\h Il Re Legend
23/06/2015 Show to everybody 23/06/2015 Roverbella tangenziale onde evitare doccia sgradevole 31.47 Km 14 m 01:10:52 26.64 Km\h Il Re Legend
21/06/2015 Show to everybody 21/06/2015 Roverbella, il ragazzo di campagna va in città 113.74 Km 677 m 04:27:23 25.52 Km\h Il Re Legend
20/06/2015 Show to everybody 20/06/2015 Roverbella, Giro Highroad (no satan`s beasts) ma arranco lo stesso 106.87 Km 711 m 03:55:53 27.19 Km\h Il Re Legend
18/06/2015 Show to everybody 18/06/2015 Roverbella, Giro tranqui 42.5 Km 57 m 01:31:16 27.94 Km\h Il Re Legend
16/06/2015 Show to everybody 16/06/2015 Roverbella, 3*10` serievel 28.98 Km 27 m 01:01:05 28.46 Km\h Il Re Legend
15/06/2015 Show to everybody 15/06/2015 Roverbella,Giro toglipolvere dalla Shiv 40.05 Km 57 m 01:21:59 29.31 Km\h Il Re Legend
13/06/2015 Show to everybody 13/06/2015 Roverbella, Giretto media distanza abbastanza mosso 89.48 Km 553 m 03:22:34 26.5 Km\h Il Re Legend
11/06/2015 Show to everybody 11/06/2015 Roverbella, L`uomo con la bici normale ha schivato gli uomini con la bici da crono ed é felice di tutto ciò 46.39 Km 262 m 01:45:35 26.36 Km\h Il Re Legend
10/06/2015 Show to everybody 10/06/2015 Roverbella, Giro dei 5 campanili® 29 Km 26 m 01:04:52 26.83 Km\h Il Re Legend
09/06/2015 Show to everybody 09/06/2015 Roverbella, Vicino casa + tangenziale + sprint antipioggia 29.38 Km 24 m 01:05:54 26.75 Km\h Il Re Legend
07/06/2015 Show to everybody 07/06/2015 Roverbella, Troppo il caldo e troppo poca la voglia di far fatica 49.17 Km 250 m 01:56:05 25.42 Km\h Il Re Legend
06/06/2015 Show to everybody 06/06/2015 Roverbella, Early ride con un po` di fresco 48.28 Km 199 m 01:52:02 25.86 Km\h Il Re Legend
05/06/2015 Show to everybody 05/06/2015 Roverbella, Giretto por la tarde con una díana che sembrano due...tafàt 25.98 Km 80 m 01:00:58 25.57 Km\h Il Re Legend
04/06/2015 Show to everybody 04/06/2015 Roverbella, Quando un uomo con bici da corsa raccoglie due uomini (bestie di satana) con la bici da crono, l`uomo con la bici da corsa é un uomo morto 36.05 Km 53 m 01:16:30 28.27 Km\h Il Re Legend
31/05/2015 Show to everybody 31/05/2015 Roverbella, Lento lento lemme lemme 48.94 Km 256 m 02:00:08 24.44 Km\h Il Re Legend
30/05/2015 Show to everybody 30/05/2015 Roverbella, -273°C = zero assoluto 43.08 Km 206 m 01:36:46 26.71 Km\h Il Re Legend
28/05/2015 Show to everybody 28/05/2015 Roverbella, Girovagando 38.75 Km 178 m 01:25:19 27.25 Km\h Il Re Legend
27/05/2015 Show to everybody 27/05/2015 Roverbella, Giro delle 3 province 67.9 Km 364 m 02:38:00 25.78 Km\h Il Re Legend
26/05/2015 Show to everybody 26/05/2015 Roverbella, Before & after dry storm 28.16 Km 8 m 01:00:05 28.12 Km\h Il Re Legend
25/05/2015 Show to everybody 25/05/2015 Roverbella, Blando blando 34.97 Km 67 m 01:15:57 27.63 Km\h Il Re Legend
20/05/2015 Show to everybody 20/05/2015 Roverbella, Ripetutamente salitoso metti kudos, salitosamente ripetuto commenta 49.08 Km 439 m 01:53:01 26.06 Km\h Il Re Legend
17/05/2015 Show to everybody 17/05/2015 Roverbella, Zero assoluto. Buio totale 82.29 Km 449 m 03:05:54 26.56 Km\h Il Re Legend
16/05/2015 Show to everybody 16/05/2015 Salionze, Un`altra (n-esima) giornata nera. Girato bici e a casa 57.65 Km 254 m 02:05:02 27.67 Km\h Il Re Legend
14/05/2015 Show to everybody 14/05/2015 Roverbella, z2 fino a che non ho trovato la 1000 miglia 48.74 Km 207 m 01:41:47 28.73 Km\h Il Re Legend
13/05/2015 Show to everybody 13/05/2015 Roverbella, 2x12` (40-20) 52.63 Km 56 m 01:44:16 30.29 Km\h Il Re Legend
12/05/2015 Show to everybody 12/05/2015 Roverbella, 3x8` z4 + 4x3`FTP + 4x1` max rpm. Oggi c`era birra 46.95 Km 88 m 01:28:34 31.81 Km\h Il Re Legend
10/05/2015 Show to everybody 10/05/2015 Veneto, Pianura con calma e salita andando indrio come i gamberi 86.96 Km 971 m 03:28:43 25 Km\h Il Re Legend
09/05/2015 Show to everybody 09/05/2015 Roverbella, Giro Highroad sez. Roverbella dopo tempo immemore...forma cmq pietosa per me 62.32 Km 480 m 02:08:17 29.15 Km\h Il Re Legend
07/05/2015 Show to everybody 07/05/2015 Roverbella, Completino figo, TT bike e si esce a fare...schifo al cazzo 62.77 Km 244 m 02:06:27 29.78 Km\h Il Re Legend
06/05/2015 Show to everybody 06/05/2015 Roverbella, Ripetute @FTP & more. Incontrata M.T. (finalmente di nuovo in bici) e il ciclista notturno M.V. 51.84 Km 234 m 01:40:40 30.9 Km\h Il Re Legend
04/05/2015 Show to everybody 04/05/2015 Roverbella, Recupero attivo #zerovoglia 24.16 Km 55 m 00:58:26 24.81 Km\h Il Re Legend
03/05/2015 Show to everybody 03/05/2015 Loc. Produttiva Ceramica Pastorel, Crono Bazzano 16.13 Km 23 m 00:23:14 41.66 Km\h Il Re Legend
03/05/2015 Show to everybody 03/05/2015 Valsamoggia, dopogara 5 Km 8 m 00:14:35 20.58 Km\h Il Re Legend
03/05/2015 Show to everybody 03/05/2015 Loc. Produttiva Ceramica Pastorel, Bazzano riscaldamento 30.54 Km 29 m 01:02:32 29.3 Km\h Il Re Legend
02/05/2015 Show to everybody 02/05/2015 Roverbella, Pre gara black matt 34.23 Km 30 m 01:09:39 29.49 Km\h Il Re Legend
30/04/2015 Show to everybody 30/04/2015 Roverbella, z2 very good 50.11 Km 75 m 01:38:28 30.54 Km\h Il Re Legend
29/04/2015 Show to everybody 29/04/2015 Roverbella, 3x10` z4/FTP 5`rec. 43.26 Km 121 m 01:20:21 32.3 Km\h Il Re Legend
28/04/2015 Show to everybody 28/04/2015 Roverbella, provando posizione con naso sull` aerobar 36.99 Km 46 m 01:23:35 26.55 Km\h Il Re Legend
26/04/2015 Show to everybody 26/04/2015 Dossi, Veneto, Italy 21.65 Km 21 m 00:43:50 29.64 Km\h Il Re Legend
26/04/2015 Show to everybody 26/04/2015 Dossi, Veneto, Italy 0.26 Km 0 m 00:00:45 20.42 Km\h Il Re Legend
26/04/2015 Show to everybody 26/04/2015 Dossi, Veneto, Italy 2.38 Km 14 m 00:07:23 19.3 Km\h Il Re Legend
24/04/2015 Show to everybody 24/04/2015 Roverbella, Rec. Attivo. 24.31 Km 55 m 00:59:32 24.5 Km\h Il Re Legend
23/04/2015 Show to everybody 23/04/2015 Roverbella, Giretto con sosta dal GMdK 50.19 Km 212 m 01:52:57 26.66 Km\h Il Re Legend
22/04/2015 Show to everybody 22/04/2015 Roverbella, DiLaNiaTo 70.12 Km 80 m 02:18:43 30.33 Km\h Il Re Legend
21/04/2015 Show to everybody 21/04/2015 Veneto, Ritorno a casa post workout 12.04 Km 8 m 00:33:32 21.54 Km\h Il Re Legend
21/04/2015 Show to everybody 21/04/2015 Roverbella, 2x5` z4 con allungo finale + 60` z3 con scatto 53x11 ogni 5` = ades son copà 56.46 Km 115 m 01:44:28 32.43 Km\h Il Re Legend
19/04/2015 Show to everybody 19/04/2015 Roverbella, Giro all`ora di colazione 40.02 Km 56 m 01:40:43 23.84 Km\h Il Re Legend
18/04/2015 Show to everybody 18/04/2015 Manzolino, Gara 13.24 Km 14 m 00:19:51 40.01 Km\h Il Re Legend
18/04/2015 Show to everybody 18/04/2015 Manzolino, Riscaldamento 25.59 Km 19 m 00:52:14 29.39 Km\h Il Re Legend
18/04/2015 Show to everybody 18/04/2015 Manzolino, Scarico 7.57 Km 6 m 00:21:03 21.58 Km\h Il Re Legend
17/04/2015 Show to everybody 17/04/2015 Roverbella, Pre ??? 37.08 Km 45 m 01:20:34 27.61 Km\h Il Re Legend
16/04/2015 Show to everybody 16/04/2015 Roverbella, It was a joke :))) 24.2 Km 52 m 01:00:08 24.15 Km\h Il Re Legend
15/04/2015 Show to everybody 15/04/2015 Roverbella, un po di fondo lungo 51.55 Km 72 m 01:44:28 29.61 Km\h Il Re Legend
14/04/2015 Show to everybody 14/04/2015 Roverbella, 30` z3 + 2x10` z4+ 45.51 Km 37 m 01:25:33 31.92 Km\h Il Re Legend
12/04/2015 Show to everybody 12/04/2015 Roverbella, Shoot the Scerriff 112.24 Km 1024 m 04:15:39 26.34 Km\h Il Re Legend
10/04/2015 Show to everybody 10/04/2015 Roverbella, Recupero Attivo 30.18 Km 57 m 01:13:47 24.54 Km\h Il Re Legend
09/04/2015 Show to everybody 09/04/2015 Roverbella, C`é mancato veramente poco... 42.1 Km 35 m 01:16:22 33.08 Km\h Il Re Legend
08/04/2015 Show to everybody 08/04/2015 Roverbella, 10x (30-30) so hard 41.24 Km 34 m 01:24:17 29.36 Km\h Il Re Legend
07/04/2015 Show to everybody 07/04/2015 Roverbella, se devi fare ritmo e cadenza costanti il vento scartavetra veramente la prostata. 39.47 Km 37 m 01:19:27 29.81 Km\h Il Re Legend
06/04/2015 Show to everybody 06/04/2015 Roverbella, spurgo uovi e colombe pasquali 85.91 Km 558 m 03:11:12 26.96 Km\h Il Re Legend
05/04/2015 Show to everybody 05/04/2015 Roverbella, Scarico 29.82 Km 55 m 01:12:23 24.72 Km\h Shiv Specialized
04/04/2015 Show to everybody 04/04/2015 Emilia-Romagna, Riscaldamento 22.36 Km 8 m 00:46:32 28.83 Km\h Shiv Specialized
04/04/2015 Show to everybody 04/04/2015 Emilia-Romagna, Scarico 4 Km 5 m 00:10:38 22.59 Km\h Shiv Specialized
04/04/2015 Show to everybody 04/04/2015 Emilia-Romagna, Gara 15.09 Km 6 m 00:22:17 40.63 Km\h Shiv Specialized
03/04/2015 Show to everybody 03/04/2015 Roverbella, Pre-gara? Ho tanti dubbi... 43.76 Km 58 m 01:32:55 28.25 Km\h Shiv Specialized
02/04/2015 Show to everybody 02/04/2015 Roverbella, Trieste, Netherland. 33.18 Km 50 m 01:19:19 25.1 Km\h Il Re Legend
01/04/2015 Show to everybody 01/04/2015 Roverbella o Gand Wewelgem??? 34.02 Km 117 m 01:15:58 26.87 Km\h Il Re Legend
31/03/2015 Show to everybody 31/03/2015 Roverbella KOMCG20` 46.77 Km 206 m 01:33:52 29.89 Km\h Il Re Legend
29/03/2015 Show to everybody 29/03/15 Roverbella, Giro all`ora di spriss (after Miro) 29.87 Km 21 m 01:05:51 27.22 Km\h Il Re Legend
28/03/2015 Show to everybody 28/03/15 Peschiera Test 2x20`...obiettivo prima gara evitare l`ultimo posto e farò fatica 65.49 Km 818 m 02:38:55 24.73 Km\h Il Re Legend
15/03/2015 Show to everybody 15/03/15 Veneto, Domenica pomeriggio salitellosamente e ventosamente pedalante 70.45 Km 668 m 02:38:52 26.61 Km\h Il Re Legend
14/03/2015 Show to everybody 14/03/2015 Roverbella, Pigno e poi S.Zeno. Oggi bene 80.08 Km 792 m 03:05:34 25.89 Km\h Il Re Legend
14/03/2015 Show to everybody 14/03/2015 Castelnuovo, Garbage time come in nba 22.19 Km 60 m 00:50:53 26.17 Km\h Il Re Legend
08/03/2015 Show to everybody 08/03/2015 Roverbella 5x5` fullgas. I`m almost ready...for waste machine. 46.77 Km 50 m 01:38:22 28.53 Km\h Il Re Legend
07/03/2015 Show to everybody 07/03/2015 Roverbella, 100 km TT modalità Dietro-Mirko 105.67 Km 447 m 03:26:18 30.73 Km\h Shiv Specialized
01/03/2015 Show to everybody 01/03/2015 Peschiera. Se in salita superati>\\[H[ܘH[\HHH[ 89.04 Km 1320 m 03:40:01 24.28 Km\h Il Re Legend
28/02/2015 Show to everybody 28/02/2015 Roverbella TT distanza media. Assetto e forma neanche lontanamente lontani dall`essere accettabili 63.15 Km 290 m 02:16:47 27.7 Km\h Il Re Legend
27/02/2015 Show to everybody 27/02/2015 Roverbella, Scarico con TT in lotta con la posizione 33.62 Km 26 m 01:20:01 25.21 Km\h Il Re Legend
25/02/2015 Show to everybody Camminata pomeridiana 1.13 Km 4 m 00:10:47 6.31 Km\h Il Re Legend
08/02/2015 Show to everybody 08/02/2015 Peschiera, Shiv is back in association with a neck ache 48.53 Km 225 m 01:38:29 29.57 Km\h Il Re Legend
08/02/2015 Show to everybody 08/02/2015 Peschiera, Shiv is back in association with a neck ache 48.53 Km 225 m 01:38:29 29.57 Km\h Il Re Legend
08/02/2015 Show to everybody 08-02 48.5 Km 225 m 01:38:29 29.55 Km\h Il Re Legend
07/02/2015 Show to everybody 07-02 55.48 Km 58 m 01:54:47 29 Km\h Il Re Legend
01/02/2015 Show to everybody 01/02/2015 Roverbella scarico con controllo solchi per "imminente" stagione outdoor 44.49 Km 59 m 01:47:47 24.76 Km\h Il Re Legend
31/01/2015 Show to everybody 31-01 test 2x20 65.02 Km 840 m 02:38:51 24.56 Km\h Il Re Legend
25/01/2015 Show to everybody 25-01 88.74 Km 737 m 03:18:40 26.8 Km\h Il Re Legend
24/01/2015 Show to everybody 24-01 108.7 Km 1081 m 04:24:38 24.64 Km\h Il Re Legend
18/01/2015 Show to everybody 18-01 49.51 Km 230 m 01:45:44 28.1 Km\h Il Re Legend
17/01/2015 Show to everybody 17-01 100.17 Km 319 m 03:25:18 29.28 Km\h Il Re Legend
11/01/2015 Show to everybody 11-01 76.91 Km 620 m 02:41:26 28.58 Km\h Il Re Legend
10/01/2015 Show to everybody 10-01 47.59 Km 643 m 01:48:29 26.32 Km\h Il Re Legend
06/01/2015 Show to everybody 06-01 77.94 Km 622 m 02:40:41 29.1 Km\h Il Re Legend
04/01/2015 Show to everybody 04-01 98.08 Km 930 m 03:33:19 27.59 Km\h Il Re Legend
01/01/2015 Show to everybody 01-01 63.14 Km 267 m 02:10:31 29.03 Km\h Il Re Legend
29/12/2014 Show to everybody 29/12/2014 Roverbella, in caso di sole: in strada. 40.16 Km 26 m 01:23:56 28.71 Km\h Il Re Legend
29/12/2014 Show to everybody 29/12/2014 Roverbella, in caso di sole: in strada. 40.16 Km 26 m 01:23:56 28.71 Km\h Il Re Legend
26/12/2014 Show to everybody 26/12/2014 Peschiera SpurgaNatale...si e no spurgati gli antipasti :( 66.17 Km 378 m 02:14:43 29.47 Km\h Il Re Legend
21/12/2014 Show to everybody 21/12/2014 Roverbella, Giro nella pampa veronese. 134.73 Km 216 m 04:48:20 28.04 Km\h Il Re Legend
14/12/2014 Show to everybody 14/12/2014 Roverbella, Minimo sindacale domenicale 56.65 Km 219 m 02:02:31 27.74 Km\h Il Re Legend
13/12/2014 Show to everybody 13/12/2014 Roverbella, After surgery con installazione e prova Vector S 45.65 Km 235 m 01:43:51 26.38 Km\h Il Re Legend
10/12/2014 Show to everybody 10/12/2014 Peschiera del Garda, Veneto, Italy 1.69 Km 35 m 00:24:44 4.1 Km\h Il Re Legend
08/12/2014 Show to everybody 08/12/2014 Roverbella, Giro breve andatura tranquilla...einvece... 137.32 Km 755 m 04:39:12 29.51 Km\h Il Re Legend
07/12/2014 Show to everybody 07/12/2014 Roverbella, On the (road) mud come quei fighi 63.19 Km 64 m 02:08:57 29.4 Km\h Il Re Legend
06/12/2014 Show to everybody 06/12/2014 Roverbella, Finalmente strada, con calma, incontrata gente con bici coi ruotoni 66.11 Km 316 m 02:30:38 26.33 Km\h Il Re Legend
29/11/2014 Show to everybody 29/11/2014 Roverbella, After Hour con visita al Gran Maestro di Kudos. 50.72 Km 214 m 01:55:03 26.45 Km\h Il Re Legend
23/11/2014 Show to everybody 23/11/2014 Peschiera, giro del lago portando a spasso la bici solo col 39 140.42 Km 661 m 04:27:27 31.5 Km\h Il Re Legend
22/11/2014 Show to everybody 22/11/2014 Roverbella, spurgabirrette pianuroso 53.14 Km 74 m 01:56:56 27.26 Km\h Il Re Legend
16/11/2014 Show to everybody 16/11/2014 Roverbella, Roverbella Salò. Sole e completo estivo. Very good 114.94 Km 600 m 04:04:06 28.25 Km\h Il Re Legend
15/11/2014 Show to everybody 15/11/2014 Roverbella, Riding through the monsoon (without rain) 76.64 Km 142 m 02:43:33 28.12 Km\h Il Re Legend
09/11/2014 Show to everybody 09/11/2014 Roverbella,Piutost che i rulli l`è mei n`ora in strada 38.52 Km 28 m 01:22:35 27.99 Km\h Il Re Legend
02/11/2014 Show to everybody 02/11/2014 Salionze, PR non cercati e non voluti. Oggi c`era benza a gogò 67.73 Km 754 m 02:32:00 26.74 Km\h Il Re Legend
01/11/2014 Show to everybody 01/11/2014 Roverbella, Stesso percorso della prima "cotta" totale di qualche annetto fa 85.39 Km 479 m 03:08:30 27.18 Km\h Il Re Legend
26/10/2014 Show to everybody 26/10/2014 Roverbella, Domenica mattina trankyfunky 58.13 Km 65 m 01:59:37 29.16 Km\h Il Re Legend
25/10/2014 Show to everybody 25/10/2014 Roverbella-Bardolino a/r 70.26 Km 321 m 02:27:59 28.49 Km\h Il Re Legend
19/10/2014 Show to everybody 19/10/2014 Peschiera del Garda, Uscita salitellosa 60.73 Km 711 m 02:20:50 25.87 Km\h Il Re Legend
18/10/2014 Show to everybody 18/10/2014 Roverbella, Giretto coi colori dell`autunno e le temperature dell`estate 69.28 Km 268 m 02:33:33 27.07 Km\h Il Re Legend
12/10/2014 Show to everybody 12/10/2014 Roverbella, Giro coffee senza sosta dal GMdK 50.91 Km 243 m 01:53:23 26.94 Km\h Il Re Legend
11/10/2014 Show to everybody 11/10/2014 Roverbella, Giretto tranqui 47.7 Km 201 m 01:46:48 26.8 Km\h Il Re Legend
08/10/2014 Show to everybody 08/10/2014 Roverbella, Lombardy, Italy 5.14 Km 0 m 00:30:04 10.26 Km\h Il Re Legend
07/10/2014 Show to everybody 07/10/2014 Roverbella, Lombardy, Italy 9.56 Km 35 m 00:52:32 10.91 Km\h Il Re Legend
05/10/2014 Show to everybody 05/10/2014 Roverbella, Giro relax con visita al GMdK... 73.48 Km 323 m 02:36:24 28.19 Km\h Il Re Legend
02/10/2014 Show to everybody 02/10/2014 Roverbella, Scarico 28.04 Km 51 m 01:05:03 25.87 Km\h Il Re Legend
30/09/2014 Show to everybody 30/09/2014 Roverbella, Ultimi colpi in esterna 24.02 Km 19 m 00:56:58 25.3 Km\h Il Re Legend
28/09/2014 Show to everybody 28/09/2014 Roverbella, Riscaldamento 17.76 Km 92 m 00:40:45 26.15 Km\h Il Re Legend
28/09/2014 Show to everybody 28/09/2014 Lombardy, Verso la crono di Villa 13.25 Km 34 m 00:28:57 27.46 Km\h Il Re Legend
28/09/2014 Show to everybody 28/09/2014 Lombardy, Simulazione gara in Cavallara 13.5 Km 87 m 00:20:37 39.28 Km\h Il Re Legend
28/09/2014 Show to everybody 28/09/2014 Villafranca di Verona, Rientro a la maison 14.08 Km 6 m 00:32:42 25.84 Km\h Il Re Legend
27/09/2014 Show to everybody 27/09/2014 Roverbella, Pre-nongara 35.31 Km 53 m 01:14:49 28.31 Km\h Il Re Legend
26/09/2014 Show to everybody 26/09/2014 Roverbella, Scarico 30.02 Km 27 m 01:12:39 24.79 Km\h Il Re Legend
25/09/2014 Show to everybody 25/09/2014 Roverbella, Ftss 40` + Serievel 30.25 Km 29 m 01:05:40 27.64 Km\h Il Re Legend
24/09/2014 Show to everybody 24/09/2014 Roverbella, Scarico 21.82 Km 27 m 00:50:07 26.12 Km\h Il Re Legend
23/09/2014 Show to everybody 23/09/2014 Roverbella, Rincorrendo gli ultimi barlumi di luce 31.08 Km 24 m 01:00:39 30.74 Km\h Il Re Legend
21/09/2014 Show to everybody 21/09/2014 Roverbella, Dopo-gara bello intenso 62.67 Km 87 m 02:03:50 30.36 Km\h Il Re Legend
20/09/2014 Show to everybody 20/09/2014 Emilia-Romagna, Cool down 17.63 Km 43 m 00:34:47 30.41 Km\h Il Re Legend
20/09/2014 Show to everybody 20/09/2014 Emilia-Romagna, Gara 17.55 Km 284 m 00:30:47 34.2 Km\h Il Re Legend
20/09/2014 Show to everybody 20/09/2014 Emilia-Romagna, In attesa di partire 2.04 Km 11 m 00:06:34 18.6 Km\h Il Re Legend
20/09/2014 Show to everybody 20/09/2014 Emilia-Romagna, Riscaldamento 28.51 Km 199 m 00:58:54 29.05 Km\h Il Re Legend
19/09/2014 Show to everybody 19/09/2014 Roverbella, Pre-gara 33.27 Km 23 m 01:11:10 28.05 Km\h Il Re Legend
18/09/2014 Show to everybody 18/09/2014 Roverbella, Scarico 27.29 Km 55 m 01:03:57 25.61 Km\h Il Re Legend
17/09/2014 Show to everybody 17/09/2014 Roverbella, Come distruggersi le gambe in un 2x10` 43.18 Km 47 m 01:22:12 31.52 Km\h Il Re Legend
16/09/2014 Show to everybody 16/09/2014 Roverbella, Gambe ancora "intossicate" dalla gara 40.53 Km 34 m 01:16:07 31.95 Km\h Il Re Legend
14/09/2014 Show to everybody 14/09/2014 Marter, Trentino-Alto Adige/South Tyrol, Italy Gara 15.93 Km 235 m 00:27:41 34.53 Km\h Il Re Legend
14/09/2014 Show to everybody 14/09/2014 Trentino-Alto Adige/South Tyrol, Dopogara 15.65 Km 87 m 00:30:57 30.35 Km\h Il Re Legend
14/09/2014 Show to everybody 14/09/2014 Marter, Riscaldamento 27.9 Km 276 m 00:58:35 28.57 Km\h Il Re Legend
13/09/2014 Show to everybody 13/09/2014 Roverbella, Pre gara 33.15 Km 46 m 01:09:19 28.7 Km\h Il Re Legend
12/09/2014 Show to everybody 12/09/2014 Roverbella, Uscita CCD alla cazzo di cane 43.57 Km 213 m 01:43:40 25.22 Km\h Il Re Legend
10/09/2014 Show to everybody 10/09/2014 Roverbella, Ritmo ritmo ritmo 38.32 Km 30 m 01:15:02 30.65 Km\h Il Re Legend
09/09/2014 Show to everybody 09/09/2014 Roverbella, 20` z4 + 20` z3 + 5` Serievel 45.39 Km 44 m 01:20:56 33.65 Km\h Il Re Legend
08/09/2014 Show to everybody 08/09/2014 Roverbella, Scarico 27.59 Km 19 m 01:09:14 23.91 Km\h Il Re Legend
07/09/2014 Show to everybody 07/09/2014 Roverbella, Tranquillo dopogara domenicale...Tafàt! 67.34 Km 75 m 02:06:13 32.01 Km\h Il Re Legend
06/09/2014 Show to everybody 06/09/2014 Carzago Riviera, Lombardy, Italy 0.41 Km 0 m 00:01:34 15.74 Km\h Il Re Legend
06/09/2014 Show to everybody 06/09/2014 Lombardy, Crono Carzago Gara 12.03 Km 165 m 00:21:01 34.34 Km\h Il Re Legend
06/09/2014 Show to everybody 06/09/2014 Lombardy, Scarico dopogara 1.54 Km 0 m 00:05:49 15.88 Km\h Il Re Legend
06/09/2014 Show to everybody 06/09/2014 Lombardy, Crono Carzago Recon 13.02 Km 167 m 00:32:15 24.22 Km\h Il Re Legend
06/09/2014 Show to everybody 06/09/2014 Lombardy, Crono Carzago riscaldamento 14.97 Km 184 m 00:36:36 24.54 Km\h Il Re Legend
05/09/2014 Show to everybody 05/09/2014 Roverbella, Pre-gara 34.37 Km 19 m 01:11:11 28.97 Km\h Il Re Legend
04/09/2014 Show to everybody 04/09/2014 Roverbella, Ftss e poi 10` Serievel 37.15 Km 48 m 01:17:13 28.87 Km\h Il Re Legend
03/09/2014 Show to everybody 03/09/2014 Roverbella, Scarico 34.29 Km 56 m 01:22:09 25.05 Km\h Il Re Legend
02/09/2014 Show to everybody 02/09/2014 Roverbella, Qualche accenno di ripresa 38.29 Km 65 m 01:18:14 29.37 Km\h Il Re Legend
31/08/2014 Show to everybody 31/08/2014 Roverbella, Un classico del passato: Roverbella-Pigno e ritorno col 48. 81.75 Km 436 m 03:08:11 26.07 Km\h Il Re Legend
30/08/2014 Show to everybody 30/08/2014 Roverbella, Giretto quasi decente 54.08 Km 59 m 02:07:00 25.55 Km\h Il Re Legend
28/08/2014 Show to everybody 28/08/2014 Roverbella, Gambe vuote. Non ce n`è. 50.14 Km 214 m 01:50:25 27.25 Km\h Il Re Legend
27/08/2014 Show to everybody 27/08/2014 Roverbella, Dead Man Cycling 39.56 Km 38 m 01:24:05 28.23 Km\h Il Re Legend
26/08/2014 Show to everybody 26/08/2014 Roverbella, Ripresa post-ferie 34.27 Km 61 m 01:11:51 28.62 Km\h Il Re Legend
17/08/2014 Show to everybody 17/08/2014 Peschiera Del Garda, Schifo a conferma di una condizione pessima 73.2 Km 896 m 02:59:34 24.46 Km\h Il Re Legend
16/08/2014 Show to everybody 16/08/2014 Roverbella, Schifo,schifo, schifo. Fatica mostruosa per niente 76.59 Km 478 m 02:50:11 27 Km\h Il Re Legend
15/08/2014 Show to everybody 15/08/2014 Roverbella, Giretto morenico chè fosse stato lacustre si rischiava la doccia 52.31 Km 279 m 01:58:50 26.41 Km\h Il Re Legend
13/08/2014 Show to everybody 13/08/2014 Roverbella, Giretto vintage dopo taaanto tempo 46.41 Km 196 m 01:41:57 27.32 Km\h Il Re Legend
12/08/2014 Show to everybody 12/08/2014 Roverbella, El Clasìco Rov-Peschi e ritorno 53.04 Km 199 m 01:55:35 27.53 Km\h Il Re Legend
11/08/2014 Show to everybody 11/08/2014 Roverbella, Z2 cercando di recuperare il recuperabile 38.01 Km 133 m 01:22:50 27.53 Km\h Il Re Legend
10/08/2014 Show to everybody 10/08/2014 Roverbella, Bivio Monco e Castio+San Zeno=copà 113.74 Km 949 m 04:10:31 27.24 Km\h Il Re Legend
09/08/2014 Show to everybody 09/08/2014 Roverbella, 1° giro post-caduta, svoltando a caso agli incroci, visita al GMdK e finale in dietro-Astanini 70.95 Km 340 m 02:36:41 27.17 Km\h Il Re Legend
31/07/2014 Show to everybody 31/07/2014 Roverbella, 2x20` z4 con caduta a 40 all`ora 54.07 Km 61 m 01:55:47 28.02 Km\h Il Re Legend
30/07/2014 Show to everybody 30/07/2014 Roverbella, Scarico 30.55 Km 31 m 01:07:59 26.97 Km\h Il Re Legend
27/07/2014 Show to everybody 27/07/2014 Roverbella, Scarico 27.1 Km 62 m 01:03:05 25.78 Km\h Il Re Legend
26/07/2014 Show to everybody 26/07/2014 Modena, Gara. Schifo. Problemi a respirare. Acqua. Visiera appannata. Codroipo 11.59 Km 0 m 00:16:53 41.2 Km\h Il Re Legend
26/07/2014 Show to everybody 26/07/2014 Bologna, Italy, Riscaldamento 11.52 Km 9 m 00:21:43 31.81 Km\h Il Re Legend
25/07/2014 Show to everybody 25/07/2014 Roverbella, Pre gara 38.49 Km 34 m 01:19:19 29.12 Km\h Il Re Legend
24/07/2014 Show to everybody 24/07/2014 Roverbella, Scarico criceto in tangenziale 30.75 Km 8 m 01:09:03 26.72 Km\h Il Re Legend
23/07/2014 Show to everybody 23/07/2014 Roverbella, 3x8=24, non è piovuto 56.51 Km 55 m 01:52:08 30.24 Km\h Il Re Legend
22/07/2014 Show to everybody 22/07/2014 Roverbella, In m**a el Garmin e tutta l`elettronica. 62.56 Km 62 m 02:04:37 30.12 Km\h Il Re Legend
20/07/2014 Show to everybody 20/07/2014 Peschiera Pigno, Pigno Pigno, Pigno, Bivio 90.48 Km 1097 m 03:34:51 25.27 Km\h Il Re Legend
19/07/2014 Show to everybody 19/07/2014 Roverbella, Pignetto alle 5 de la tarde 86.91 Km 444 m 03:12:18 27.12 Km\h Il Re Legend
17/07/2014 Show to everybody 17/07/2014 Roverbella, Qualche allunghetto ogni tanto 42.93 Km 43 m 01:26:35 29.75 Km\h Il Re Legend
16/07/2014 Show to everybody 16/07/2014 Roverbella, Scarico festa chic 29.57 Km 25 m 01:07:32 26.28 Km\h Il Re Legend
15/07/2014 Show to everybody 15/07/2014 Roverbella, 2x7` macando un pó 40.15 Km 40 m 01:30:24 26.65 Km\h Il Re Legend
13/07/2014 Show to everybody 13/07/2014 Verona, Italy, Veneto, Italy 109.31 Km 1512 m 04:14:29 25.77 Km\h Il Re Legend
12/07/2014 Show to everybody 12/07/2014 Verona, Evitata bomba d`acqua "grazie" ad una ruota ballerina 45.03 Km 216 m 01:49:23 24.7 Km\h Il Re Legend
11/07/2014 Show to everybody 11/07/2014 Roverbella, Scarico 22.53 Km 42 m 00:50:41 26.67 Km\h Il Re Legend
10/07/2014 Show to everybody 10/07/2014 Roverbella, Finalmente qualcosa di accettabile 51.13 Km 212 m 01:39:08 30.95 Km\h Il Re Legend
06/07/2014 Show to everybody 06/07/2014 Italy, Spurga birrette, bivio in 28` schifo totale. Sego in 2 la bici. 89.27 Km 1153 m 03:28:38 25.67 Km\h Il Re Legend
05/07/2014 Show to everybody 05/07/2014 Roverbella, Spurga mojiti 77.94 Km 249 m 02:40:26 29.15 Km\h Il Re Legend
04/07/2014 Show to everybody 04/07/2014 Roverbella, Scarico 28.12 Km 29 m 01:04:07 26.31 Km\h Il Re Legend
03/07/2014 Show to everybody 03/07/2014 Roverbella, Spurga CupCakes 51.9 Km 229 m 01:38:55 31.48 Km\h Il Re Legend
02/07/2014 Show to everybody 02/07/2014 Roverbella, Spurga Caesar salad 65.95 Km 67 m 02:10:58 30.22 Km\h Il Re Legend
01/07/2014 Show to everybody 01/07/2014 Roverbella, Spurghot-dog 47.98 Km 36 m 01:32:00 31.29 Km\h Il Re Legend
30/06/2014 Show to everybody 30/06/2014 Roverbella, Spurghamburger 32.65 Km 43 m 01:06:26 29.48 Km\h Il Re Legend
19/06/2014 Show to everybody 19/06/2014 Roverbella, Easy with hard final. 35.06 Km 59 m 01:10:10 29.98 Km\h Il Re Legend
18/06/2014 Show to everybody 18/06/2014 Roverbella, Scarico un tantino allegro 36.66 Km 46 m 01:12:23 30.39 Km\h Il Re Legend
17/06/2014 Show to everybody 17/06/2014 Roverbella, Boh?!?!?!?! 47.73 Km 90 m 01:29:02 32.16 Km\h Il Re Legend
15/06/2014 Show to everybody 15/06/2014 Roverbella, Giro cazzeggio con sosta dal GMdK che ha sentenziato: "Non c`è vento!" 74.81 Km 312 m 02:38:29 28.32 Km\h Il Re Legend
14/06/2014 Show to everybody 14/06/2014 Roverbella, A vedere il Triathlon a Bardolino = uscita ritmo "Ad Cazzum" 74.54 Km 345 m 02:22:50 31.31 Km\h Il Re Legend
12/06/2014 Show to everybody 12/06/2014 Roverbella, 3x8` Simil-gara. Caldo ghe n`è!! 65.49 Km 64 m 02:13:01 29.54 Km\h Il Re Legend
11/06/2014 Show to everybody 11/06/2014 Roverbella, Scarico 26.45 Km 53 m 00:59:38 26.62 Km\h Il Re Legend
10/06/2014 Show to everybody 10/06/2014 Roverbella, 4x [2`@125%FTP + 6`FTP] con SpannoMeter 69.85 Km 69 m 02:20:08 29.91 Km\h Il Re Legend
08/06/2014 Show to everybody 08/06/2014 Peschiera, Oggi PM sembrante funzionante...mumble mumble 100.82 Km 723 m 03:31:02 28.66 Km\h Il Re Legend
07/06/2014 Show to everybody 07/06/2014 Roverbella, Cambio bloccato e tanti cancheri. 37.83 Km 121 m 01:39:10 22.89 Km\h Il Re Legend
05/06/2014 Show to everybody 05/06/2014 Roverbella, Su e giù a Custoza 60.51 Km 494 m 02:12:28 27.41 Km\h Il Re Legend
04/06/2014 Show to everybody 04/06/2014 Roverbella, 2x20` z4 56.6 Km 47 m 01:47:48 31.5 Km\h Il Re Legend
02/06/2014 Show to everybody 02/06/2014 Peschiera Da grande diventerò uno scalahahahahahahaha!!!! 118.01 Km 1925 m 04:53:55 24.09 Km\h Il Re Legend
01/06/2014 Show to everybody 01/06/2014 Roverbella, Lunghissssssimo in solitaria 85.59 Km 667 m 03:01:51 28.24 Km\h Il Re Legend
31/05/2014 Show to everybody 31/05/2014 Verona, Test 2x20` (Bivio) 48.82 Km 806 m 01:50:03 26.62 Km\h Il Re Legend
29/05/2014 Show to everybody 29/05/2014 Roverbella, Scarico 29.25 Km 25 m 01:07:21 26.06 Km\h Il Re Legend
28/05/2014 Show to everybody 28/05/2014 Roverbella, FTSS80` in tangenziale like a criceto 62.03 Km 19 m 01:45:51 35.16 Km\h Il Re Legend
25/05/2014 Show to everybody 25/05/2014 Modena, TT Baggiovara gara, Italy 14.9 Km 17 m 00:21:52 40.88 Km\h Il Re Legend
25/05/2014 Show to everybody 25/05/2014 Modena, Defaticamento 5.1 Km 10 m 00:14:18 21.41 Km\h Il Re Legend
25/05/2014 Show to everybody 25/05/2014 Modena, Baggiovara riscaldamento 25.04 Km 27 m 00:49:51 30.14 Km\h Il Re Legend
24/05/2014 Show to everybody 24/05/2014 Roverbella, Pre-gara 35.43 Km 30 m 01:07:16 31.61 Km\h Il Re Legend
23/05/2014 Show to everybody 23/05/2014 Roverbella, Scarico 22.98 Km 52 m 00:52:46 26.13 Km\h Il Re Legend
22/05/2014 Show to everybody 22/05/2014 Roverbella, Spannometricamente FTSS60 48.5 Km 102 m 01:29:39 32.46 Km\h Il Re Legend
21/05/2014 Show to everybody 21/05/2014 Roverbella, Spannometricamente 10`z4 + 20` z4 con scatti z7 55.02 Km 62 m 01:42:11 32.31 Km\h Il Re Legend
19/05/2014 Show to everybody 19/05/2014 Roverbella, Scarico 22 Km 32 m 00:52:01 25.38 Km\h Il Re Legend
18/05/2014 Show to everybody 18/05/2014 Argelato, Defaticamento 4.59 Km 0 m 00:13:08 20.96 Km\h Il Re Legend
18/05/2014 Show to everybody 18/05/2014 Argelato, Gara 23.06 Km 24 m 00:32:51 42.12 Km\h Il Re Legend
18/05/2014 Show to everybody 18/05/2014 Argelato, Riscaldamento 23.82 Km 23 m 00:45:48 31.21 Km\h Il Re Legend
17/05/2014 Show to everybody 17/05/2014 Roverbella,Pre gara 44.09 Km 58 m 01:31:36 28.88 Km\h Il Re Legend
15/05/2014 Show to everybody 15/05/2014 Roverbella, z4 10` + 20` con scatti. Vento? Non si muoveva neanche una foglia. 53.95 Km 121 m 01:48:28 29.84 Km\h Il Re Legend
14/05/2014 Show to everybody 14/05/2014 Roverbella, 45`z3 + 2x allunghi KomCG 46.26 Km 50 m 01:24:56 32.68 Km\h Il Re Legend
13/05/2014 Show to everybody 13/05/2014 Roverbella, 3x12` z4 roarbela-valès avanti e indrè x2 47.28 Km 71 m 01:25:54 33.03 Km\h Il Re Legend
12/05/2014 Show to everybody 5/12/14 Roverbella, Scarico+scancheramento perchè non legge dati PM 32.79 Km 29 m 01:12:02 27.31 Km\h Il Re Legend
11/05/2014 Show to everybody 5/11/14 Lido Di Jesolo, Dopo gara 0.85 Km 0 m 00:05:18 9.66 Km\h Il Re Legend
11/05/2014 Show to everybody 5/11/14 Lido Di Jesolo, 6xAndrea Gara. PM ko 22.39 Km 0 m 00:31:47 42.26 Km\h Il Re Legend
11/05/2014 Show to everybody 5/11/14 Lido Di Jesolo, Tentativo riattivazione PM 0.94 Km 0 m 00:04:16 13.24 Km\h Il Re Legend
11/05/2014 Show to everybody 5/11/14 Lido Di Jesolo, Riscaldamento 22.34 Km 10 m 00:45:38 29.37 Km\h Il Re Legend
11/05/2014 Show to everybody 5/11/14 Lido Di Jesolo, Veneto, Italy 0.41 Km 0 m 00:02:02 12.11 Km\h Il Re Legend
10/05/2014 Show to everybody 5/10/14 Lido Di Jesolo, Pre-gara 6xAndrea 36.76 Km 15 m 01:21:46 26.98 Km\h Il Re Legend
09/05/2014 Show to everybody 5/9/14 Roverbella, Scarico 29.66 Km 29 m 01:14:08 24.01 Km\h Il Re Legend
08/05/2014 Show to everybody 5/8/14 Roverbella, 2x24` HOP con allunghi z6. 57.58 Km 54 m 01:45:34 32.73 Km\h Il Re Legend
07/05/2014 Show to everybody 5/7/14 Roverbella, Pepata anche se "solo" z2 59.68 Km 70 m 01:56:33 30.72 Km\h Il Re Legend
05/05/2014 Show to everybody 5/5/14 Roverbella, Scarico 29.63 Km 32 m 01:06:25 26.77 Km\h Il Re Legend
04/05/2014 Show to everybody 5/4/14 Roverbella, Giro post-nozze 59.8 Km 80 m 01:59:52 29.93 Km\h Il Re Legend
03/05/2014 Show to everybody 5/3/14 Verona, Salita, ritmo, scatti, allunghi 101.37 Km 1031 m 03:39:43 27.68 Km\h Il Re Legend
02/05/2014 Show to everybody 5/2/14 Roverbella, Tangensial is megl che rulli 24.32 Km 4 m 00:51:47 28.18 Km\h Il Re Legend
01/05/2014 Show to everybody 01/05/2014 Altedo, Defaticamentone 4.47 Km 2 m 00:15:30 17.3 Km\h Il Re Legend
01/05/2014 Show to everybody 01/05/2014 Altedo, Riscaldamento 21.25 Km 27 m 00:43:20 29.42 Km\h Il Re Legend
01/05/2014 Show to everybody 01/05/2014 Altedo, Gara.Schifo. -30 w. 12 Km 22 m 00:17:27 41.25 Km\h Il Re Legend
27/04/2014 Show to everybody 27/04/2014 Padua, Gara 11.16 Km 17 m 00:15:55 42.06 Km\h Il Re Legend
27/04/2014 Show to everybody 27/04/2014 Padua, Italy, Riscaldamento 24.7 Km 38 m 00:49:58 29.66 Km\h Il Re Legend
27/04/2014 Show to everybody 27/04/2014 Padua, Defaticamento 11.17 Km 16 m 00:25:38 26.15 Km\h Il Re Legend
26/04/2014 Show to everybody 26/04/2014 Roverbella, Pre-gara 38.7 Km 41 m 01:16:41 30.28 Km\h Il Re Legend
25/04/2014 Show to everybody 25/04/2014 Roverbella, Rehab 2.0 after flu 62.7 Km 259 m 02:16:51 27.49 Km\h Il Re Legend
24/04/2014 Show to everybody 24/04/2014 Roverbella, Rehab after flu 45.79 Km 214 m 01:37:40 28.13 Km\h Il Re Legend
21/04/2014 Show to everybody 21/04/2014 Roverbella, SpurgaPasquetta 36.76 Km 55 m 01:11:05 31.03 Km\h Il Re Legend
20/04/2014 Show to everybody 20/04/2014 Roverbella, Don Chisciotte con la bici invece che col cavàl 56.48 Km 100 m 02:01:53 27.8 Km\h Il Re Legend
19/04/2014 Show to everybody 19/04/2014 Roverbella, Netherland style training 61.65 Km 67 m 02:01:03 30.56 Km\h Il Re Legend
17/04/2014 Show to everybody 17/04/2014 Roverbella, 2x25` HOP con allunghi 53.43 Km 55 m 01:36:00 33.39 Km\h Il Re Legend
16/04/2014 Show to everybody 16/04/2014 Roverbella, 3x15` alta cadenza 51.68 Km 43 m 01:35:40 32.41 Km\h Il Re Legend
15/04/2014 Show to everybody 15/04/2014 Roverbella, 4x10` @Ftp +o- 56.22 Km 52 m 01:41:16 33.31 Km\h Il Re Legend
13/04/2014 Show to everybody 13/04/2014 Roverbella, Scarico 46.45 Km 198 m 01:48:47 25.62 Km\h Il Re Legend
12/04/2014 Show to everybody 12/04/2014 Modena, Gara manzolino 13.24 Km 13 m 00:19:10 41.46 Km\h Il Re Legend
12/04/2014 Show to everybody 12/04/2014 Modena, Riscaldamento 26.91 Km 19 m 00:50:52 31.75 Km\h Il Re Legend
11/04/2014 Show to everybody 11/04/2014 Roverbella,Pre-gara zerovento (tafàt!) con sosta a Ri-bici 37.17 Km 70 m 01:15:31 29.53 Km\h Il Re Legend
09/04/2014 Show to everybody 09/04/2014 Roverbella, 30` Hop con allunghi 39.85 Km 88 m 01:11:17 33.54 Km\h Il Re Legend
08/04/2014 Show to everybody 08/04/2014 Roverbella, 4x8` z4 46.9 Km 39 m 01:29:19 31.5 Km\h Il Re Legend
06/04/2014 Show to everybody 06/04/2014 Peschiera Giro Colnago +o- col gruppo 97.06 Km 669 m 03:18:28 29.34 Km\h Il Re Legend
05/04/2014 Show to everybody 05/04/2014 Bologna, Riscaldamento 25.33 Km 4 m 00:53:39 28.33 Km\h Il Re Legend
05/04/2014 Show to everybody 05/04/2014 Bologna, Gara 12.14 Km 9 m 00:17:37 41.35 Km\h Il Re Legend
05/04/2014 Show to everybody 05/04/2014 Bologna, Italy, Scarico per modo di dire 2.8 Km 0 m 00:17:31 9.59 Km\h Il Re Legend
03/04/2014 Show to everybody 03/04/2014 Roverbella, Giretto in scarico 27.56 Km 56 m 00:59:43 27.69 Km\h Il Re Legend
02/04/2014 Show to everybody 02/04/2014 Roverbella, 2x10` z4 poi dietroRiccardo 50.55 Km 67 m 01:30:36 33.48 Km\h Il Re Legend
31/03/2014 Show to everybody 31/03/2014 Roverbella, Scarico Post FdM 30.44 Km 24 m 01:06:54 27.3 Km\h Il Re Legend
30/03/2014 Show to everybody 30/03/2014 Forte Dei Marmi, Riscaldamento 17.37 Km 2 m 00:39:02 26.7 Km\h Il Re Legend
30/03/2014 Show to everybody 30/03/2014 Forte Dei Marmi, Defaticamento 3.13 Km 0 m 00:10:01 18.77 Km\h Il Re Legend
30/03/2014 Show to everybody 30/03/2014 Forte Dei Marmi, TTT Versilia, Gara 30.64 Km 4 m 00:40:21 45.56 Km\h Il Re Legend
29/03/2014 Show to everybody 29/03/2014 Cinquale, Pre-gara TTT FdM 40.8 Km 2 m 01:31:36 26.73 Km\h Il Re Legend
23/03/2014 Show to everybody 23/03/2014 Giro all`ora del caffè con vento e grandinata 52.65 Km 228 m 01:50:52 28.5 Km\h Il Re Legend
22/03/2014 Show to everybody 22/03/2014 Roverbella, prove TTT FdM...meglio molto meglio rispetto a sabato scorso 76.84 Km 66 m 02:22:47 32.29 Km\h Il Re Legend
21/03/2014 Show to everybody 21/03/2014 Giro all`ora di merenda 36.36 Km 89 m 01:20:52 26.98 Km\h Il Re Legend
16/03/2014 Show to everybody 16/03/2014 Peschiera, 2x Albisano poi rientro con ruota sgonfia. 76.4 Km 746 m 02:44:27 27.88 Km\h Il Re Legend
15/03/2014 Show to everybody 15/03/2014, "Dis in nod draining"...come direbbe andonio conde 85.93 Km 138 m 02:47:35 30.77 Km\h Il Re Legend
08/03/2014 Show to everybody 08/03/2014 Pacengo, Welcome back Legend...Schiena, culo e cabasisi ringraziano 79.4 Km 890 m 02:57:59 26.77 Km\h Il Re Legend
08/03/2014 Show to everybody 08/03/2014 Peschiera Del Garda, installation lap 3.58 Km 36 m 00:08:23 25.61 Km\h Il Re Legend

Show previous years trainings
This user's bikes.
Il Re Legend 12 879.78 Km 6572 m 32:00:53 27.71 Km/h
Shiv Specialized 6 220.7 Km 579 m 07:31:03 29.29 Km/h

52 points
Kilometers
0
Vertical gain
0
Rank:224

Watch ranking »

 

Bike name

Delete this bike?

Now you follow this users and you can compare your trainings

If you stop following this users you will not be able to compare your trainings with his


bdc-forum.it | 2012-2019 Training Camp v.1.0.15